Time;durP1;ratioP1;P1;durP2;ratioP2;P2;SDS_P1;SDS_P2;PMS_P1;PMS_P2;Temp;Humidity;BMP_temperature;BMP_pressure;BME280_temperature;BME280_humidity;BME280_pressure;Samples;Min_cycle;Max_cycle;Signal;HPM_P1;HPM_P2
2022/04/01 00:00:42;;;;;;;1.47;1.03;;;15.80;67.40;;;;;;2005526;28;20177;-74
2022/04/01 00:01:42;;;;;;;1.38;1.20;;;15.80;67.50;;;;;;2005441;28;20577;-74
2022/04/01 00:02:41;;;;;;;1.52;1.15;;;15.80;67.40;;;;;;2005195;28;20200;-75
2022/04/01 00:03:40;;;;;;;1.50;1.27;;;15.80;67.40;;;;;;2005509;28;20200;-74
2022/04/01 00:04:39;;;;;;;1.80;1.20;;;15.80;67.50;;;;;;2005191;28;20499;-75
2022/04/01 00:05:39;;;;;;;3.25;1.48;;;15.70;67.40;;;;;;2005387;28;20630;-75
2022/04/01 00:06:37;;;;;;;1.98;1.38;;;15.70;67.30;;;;;;2005293;28;20204;-76
2022/04/01 00:07:38;;;;;;;1.37;1.20;;;15.70;67.60;;;;;;2004864;28;20665;-75
2022/04/01 00:08:37;;;;;;;1.00;0.80;;;15.70;67.40;;;;;;1997033;28;20178;-75
2022/04/01 00:09:37;;;;;;;1.57;1.10;;;15.70;67.30;;;;;;2004825;28;20177;-75
2022/04/01 00:10:36;;;;;;;1.10;1.00;;;15.80;67.50;;;;;;2005406;28;20165;-75
2022/04/01 00:11:35;;;;;;;2.17;1.25;;;15.70;67.60;;;;;;2005373;28;20212;-75
2022/04/01 00:12:37;;;;;;;1.63;1.00;;;15.70;67.60;;;;;;2005331;28;20203;-74
2022/04/01 00:13:36;;;;;;;1.23;1.00;;;15.80;67.80;;;;;;2004646;28;20174;-75
2022/04/01 00:14:34;;;;;;;2.07;1.30;;;15.80;67.40;;;;;;2004716;28;20173;-75
2022/04/01 00:15:33;;;;;;;3.87;0.90;;;15.70;67.60;;;;;;2005210;28;20741;-75
2022/04/01 00:16:32;;;;;;;2.20;1.10;;;15.80;67.60;;;;;;2005222;28;20346;-75
2022/04/01 00:17:30;;;;;;;2.60;1.00;;;15.70;67.50;;;;;;2005294;28;20400;-75
2022/04/01 00:18:29;;;;;;;1.30;1.00;;;15.70;67.70;;;;;;2005313;28;20185;-75
2022/04/01 00:19:28;;;;;;;2.03;1.30;;;15.70;67.50;;;;;;2005151;28;20173;-74
2022/04/01 00:20:27;;;;;;;1.27;1.13;;;15.70;67.50;;;;;;2005435;28;20545;-75
2022/04/01 00:21:26;;;;;;;1.00;0.80;;;15.70;67.50;;;;;;2005290;28;20544;-75
2022/04/01 00:22:24;;;;;;;1.60;1.00;;;15.70;67.50;;;;;;2005214;28;20216;-75
2022/04/01 00:23:23;;;;;;;3.07;1.20;;;15.70;67.50;;;;;;2005188;28;20221;-75
2022/04/01 00:24:22;;;;;;;2.30;1.00;;;15.70;67.50;;;;;;2004500;28;20200;-75
2022/04/01 00:25:21;;;;;;;1.83;1.10;;;15.70;67.50;;;;;;2004614;28;20169;-75
2022/04/01 00:26:19;;;;;;;2.07;1.27;;;15.70;67.50;;;;;;2005171;28;20224;-75
2022/04/01 00:27:18;;;;;;;1.50;1.00;;;15.70;67.50;;;;;;2005266;28;20187;-75
2022/04/01 00:28:16;;;;;;;2.03;0.93;;;15.70;67.40;;;;;;2005125;28;20173;-75
2022/04/01 00:29:15;;;;;;;1.43;1.13;;;15.70;67.40;;;;;;2005210;28;20205;-75
2022/04/01 00:30:13;;;;;;;2.20;1.40;;;15.80;67.70;;;;;;2005219;28;20542;-76
2022/04/01 00:31:13;;;;;;;1.23;1.13;;;15.70;67.50;;;;;;2004451;28;20925;-76
2022/04/01 00:32:12;;;;;;;1.63;1.00;;;15.70;67.50;;;;;;2004656;28;20708;-75
2022/04/01 00:33:11;;;;;;;1.33;0.90;;;15.70;67.50;;;;;;2005316;28;20256;-75
2022/04/01 00:34:16;;;;;;;1.10;0.95;;;16.00;67.60;;;;;;2004561;28;20200;-75
2022/04/01 00:35:15;;;;;;;1.75;1.10;;;15.70;67.70;;;;;;2004843;28;20157;-75
2022/04/01 00:36:14;;;;;;;3.00;1.10;;;15.70;67.80;;;;;;2005109;28;20224;-75
2022/04/01 00:37:12;;;;;;;1.90;1.20;;;15.70;67.60;;;;;;2005209;28;20192;-75
2022/04/01 00:38:13;;;;;;;1.50;1.10;;;15.70;67.60;;;;;;2005233;28;20437;-75
2022/04/01 00:39:13;;;;;;;1.60;0.93;;;15.70;67.60;;;;;;2005066;28;20622;-76
2022/04/01 00:40:12;;;;;;;1.38;0.95;;;15.70;67.60;;;;;;2005393;28;20661;-75
2022/04/01 00:41:11;;;;;;;3.35;1.40;;;15.70;67.50;;;;;;2005270;28;20637;-75
2022/04/01 00:42:09;;;;;;;1.70;1.13;;;15.60;67.60;;;;;;2005135;28;20181;-75
2022/04/01 00:43:11;;;;;;;2.07;1.00;;;15.60;67.50;;;;;;2005161;28;20189;-75
2022/04/01 00:44:14;;;;;;;5.47;1.30;;;15.70;67.70;;;;;;2005371;28;20220;-75
2022/04/01 00:45:12;;;;;;;1.20;1.10;;;15.60;67.50;;;;;;2005219;28;20612;-76
2022/04/01 00:46:11;;;;;;;1.57;1.07;;;15.60;67.60;;;;;;2004531;28;20205;-76
2022/04/01 00:47:12;;;;;;;1.23;0.87;;;15.70;67.80;;;;;;2004680;28;20641;-76
2022/04/01 00:48:11;;;;;;;1.63;1.30;;;15.60;67.40;;;;;;2005237;28;20181;-75
2022/04/01 00:49:10;;;;;;;1.33;1.10;;;15.60;67.60;;;;;;2005033;28;20667;-75
2022/04/01 00:50:09;;;;;;;1.37;1.00;;;15.60;67.80;;;;;;2005132;28;20196;-75
2022/04/01 00:51:08;;;;;;;5.88;1.35;;;15.70;67.60;;;;;;2005086;28;20420;-75
2022/04/01 00:52:11;;;;;;;3.20;1.08;;;15.70;67.60;;;;;;2005088;28;20658;-75
2022/04/01 00:53:09;;;;;;;1.48;1.20;;;15.60;67.50;;;;;;2005032;28;20181;-75
2022/04/01 00:54:09;;;;;;;1.00;0.90;;;15.60;67.50;;;;;;2004375;28;20630;-76
2022/04/01 00:55:09;;;;;;;1.30;1.00;;;15.60;67.60;;;;;;2004241;28;20169;-75
2022/04/01 00:56:07;;;;;;;1.50;1.10;;;15.70;67.60;;;;;;2004225;28;20283;-75
2022/04/01 00:57:08;;;;;;;1.53;1.00;;;15.60;67.40;;;;;;2004564;28;20176;-75
2022/04/01 00:58:08;;;;;;;1.55;1.13;;;15.60;67.40;;;;;;2005008;28;20400;-75
2022/04/01 00:59:08;;;;;;;1.80;1.00;;;15.70;67.80;;;;;;2004319;28;20578;-76
2022/04/01 01:00:08;;;;;;;2.08;0.98;;;15.60;67.60;;;;;;2004464;28;20181;-75
2022/04/01 01:01:06;;;;;;;2.55;1.05;;;15.70;67.80;;;;;;2004981;28;20184;-75
2022/04/01 01:02:05;;;;;;;3.33;1.07;;;15.70;67.80;;;;;;2004332;28;20205;-76
2022/04/01 01:03:05;;;;;;;1.67;0.98;;;15.60;67.60;;;;;;2004499;28;20181;-76
2022/04/01 01:04:05;;;;;;;0.98;0.88;;;15.60;67.70;;;;;;2004926;28;20207;-75
2022/04/01 01:05:04;;;;;;;1.80;1.00;;;15.60;67.60;;;;;;2004982;28;20181;-75
2022/04/01 01:06:03;;;;;;;1.75;1.13;;;15.60;67.90;;;;;;2004782;28;20191;-75
2022/04/01 01:07:03;;;;;;;1.50;1.10;;;15.60;67.80;;;;;;2004996;28;20183;-76
2022/04/01 01:08:05;;;;;;;3.40;1.15;;;15.60;67.90;;;;;;2004989;28;20522;-75
2022/04/01 01:09:04;;;;;;;0.90;0.70;;;15.60;67.80;;;;;;2004231;28;20177;-77
2022/04/01 01:10:03;;;;;;;2.35;1.40;;;15.60;67.80;;;;;;2004247;28;20260;-76
2022/04/01 01:11:02;;;;;;;1.65;1.05;;;15.60;67.70;;;;;;2004965;28;20256;-76
2022/04/01 01:12:01;;;;;;;1.10;1.00;;;15.70;68.10;;;;;;2004864;28;20204;-75
2022/04/01 01:12:59;;;;;;;3.20;1.23;;;15.60;68.10;;;;;;2004944;28;20665;-75
2022/04/01 01:13:59;;;;;;;4.93;1.20;;;15.60;67.90;;;;;;2004758;28;20179;-76
2022/04/01 01:15:07;;;;;;;1.70;1.10;;;15.60;67.90;;;;;;2004831;28;20582;-75
2022/04/01 01:16:07;;;;;;;2.38;1.67;;;15.60;67.80;;;;;;2004678;28;20220;-76
2022/04/01 01:17:10;;;;;;;1.10;1.00;;;15.60;67.80;;;;;;2005032;28;20158;-75
2022/04/01 01:18:08;;;;;;;0.98;0.88;;;15.60;67.90;;;;;;2006605;28;20165;-75
2022/04/01 01:19:12;;;;;;;1.20;0.90;;;15.60;68.00;;;;;;2007573;28;20634;-75
2022/04/01 01:20:17;;;;;;;1.58;1.15;;;15.50;67.90;;;;;;2007716;28;20232;-75
2022/04/01 01:21:16;;;;;;;1.83;1.30;;;15.50;67.70;;;;;;2007984;28;20220;-77
2022/04/01 01:22:14;;;;;;;1.57;1.00;;;15.50;67.90;;;;;;2013236;28;20165;-76
2022/04/01 01:23:13;;;;;;;1.13;1.00;;;15.50;67.90;;;;;;2013498;28;20181;-76
2022/04/01 01:24:15;;;;;;;1.00;0.90;;;15.50;67.80;;;;;;2013400;28;20419;-76
2022/04/01 01:25:14;;;;;;;2.03;1.20;;;15.50;67.70;;;;;;2010681;28;20185;-75
2022/04/01 01:26:12;;;;;;;1.58;0.90;;;15.60;67.90;;;;;;2006400;28;20204;-75
2022/04/01 01:27:13;;;;;;;1.30;0.90;;;15.50;68.00;;;;;;2005794;28;20184;-75
2022/04/01 01:28:12;;;;;;;1.30;1.10;;;15.50;68.00;;;;;;2004645;28;20169;-75
2022/04/01 01:29:11;;;;;;;1.75;0.80;;;15.50;68.10;;;;;;1996583;28;20188;-75
2022/04/01 01:30:11;;;;;;;1.42;1.10;;;15.50;67.80;;;;;;2004110;28;20162;-75
2022/04/01 01:31:10;;;;;;;1.05;0.88;;;15.50;68.00;;;;;;2004848;28;20185;-75
2022/04/01 01:32:12;;;;;;;1.23;0.97;;;15.50;67.90;;;;;;2004724;28;20193;-75
2022/04/01 01:33:11;;;;;;;1.33;1.10;;;15.60;68.10;;;;;;2004865;28;20407;-75
2022/04/01 01:34:10;;;;;;;1.17;1.00;;;15.50;67.90;;;;;;2004874;28;20185;-75
2022/04/01 01:35:09;;;;;;;1.52;0.90;;;15.50;67.70;;;;;;2004726;28;20165;-75
2022/04/01 01:36:09;;;;;;;1.10;0.70;;;15.50;67.80;;;;;;2004767;28;20184;-75
2022/04/01 01:37:11;;;;;;;1.58;0.95;;;15.50;67.80;;;;;;2004660;28;20165;-75
2022/04/01 01:38:10;;;;;;;1.23;1.05;;;15.50;67.70;;;;;;2004698;28;20230;-76
2022/04/01 01:39:09;;;;;;;2.00;0.90;;;15.50;67.70;;;;;;2004704;28;20169;-75
2022/04/01 01:40:08;;;;;;;3.53;1.00;;;15.50;67.90;;;;;;2004662;28;20565;-76
2022/04/01 01:41:07;;;;;;;1.70;0.85;;;15.50;67.90;;;;;;2004630;28;20177;-75
2022/04/01 01:42:07;;;;;;;2.70;0.90;;;15.50;67.80;;;;;;2004743;28;20188;-76
2022/04/01 01:43:06;;;;;;;0.90;0.80;;;15.50;67.80;;;;;;2004654;28;20220;-76
2022/04/01 01:44:05;;;;;;;1.10;0.90;;;15.60;68.00;;;;;;2004642;28;20534;-76
2022/04/01 01:45:05;;;;;;;1.15;0.93;;;15.60;68.40;;;;;;2004723;28;20634;-76
2022/04/01 01:46:04;;;;;;;1.20;1.02;;;15.50;68.00;;;;;;2004645;28;20200;-76
2022/04/01 01:47:04;;;;;;;1.48;1.13;;;15.60;67.90;;;;;;2004742;28;20177;-76
2022/04/01 01:48:04;;;;;;;1.10;1.00;;;15.60;67.80;;;;;;2004075;28;20189;-75
2022/04/01 01:49:03;;;;;;;1.17;0.98;;;15.50;67.70;;;;;;2004215;28;20180;-75
2022/04/01 01:55:13;;;;;;;2.78;1.00;;;15.50;68.10;;;;;;2004655;28;20180;-75
2022/04/01 01:56:12;;;;;;;2.00;1.20;;;15.60;68.20;;;;;;2004521;28;20199;-75
2022/04/01 01:57:25;;;;;;;1.35;0.93;;;15.50;68.80;;;;;;2004443;28;20412;-75
2022/04/01 01:58:23;;;;;;;1.52;1.10;;;15.50;68.10;;;;;;2004663;28;20169;-75
2022/04/01 01:59:22;;;;;;;1.10;0.80;;;15.60;68.30;;;;;;2004611;28;20257;-75
2022/04/01 02:00:22;;;;;;;2.10;0.90;;;15.50;68.10;;;;;;2004565;28;20173;-75
2022/04/01 02:01:21;;;;;;;1.20;0.80;;;15.50;68.30;;;;;;2004531;28;20177;-75
2022/04/01 02:02:21;;;;;;;2.67;1.13;;;15.60;68.20;;;;;;2004500;28;20646;-75
2022/04/01 02:03:19;;;;;;;1.15;0.90;;;15.60;68.00;;;;;;2004508;28;20177;-76
2022/04/01 02:04:18;;;;;;;1.10;1.00;;;15.50;68.00;;;;;;2004466;28;20176;-76
2022/04/01 02:05:17;;;;;;;4.30;1.00;;;15.50;68.00;;;;;;2004437;28;20540;-75
2022/04/01 02:06:16;;;;;;;1.20;0.90;;;15.50;68.20;;;;;;2004319;28;20748;-75
2022/04/01 02:07:15;;;;;;;2.10;1.23;;;15.50;68.30;;;;;;2004140;28;20196;-75
2022/04/01 02:08:14;;;;;;;2.03;1.00;;;15.60;68.40;;;;;;2004417;28;20434;-75
2022/04/01 02:09:13;;;;;;;0.80;0.80;;;15.50;68.20;;;;;;2004440;28;20180;-75
2022/04/01 02:10:12;;;;;;;3.15;1.00;;;15.50;68.20;;;;;;2004544;28;20185;-75
2022/04/01 02:11:10;;;;;;;4.83;1.23;;;15.50;68.30;;;;;;2004435;28;20204;-75
2022/04/01 02:12:09;;;;;;;1.10;1.00;;;15.50;68.40;;;;;;2004415;28;20199;-75
2022/04/01 02:13:08;;;;;;;1.20;0.80;;;15.50;68.30;;;;;;2004426;28;20695;-74
2022/04/01 02:14:06;;;;;;;1.00;0.90;;;15.50;68.50;;;;;;2004484;28;20196;-76
2022/04/01 02:15:06;;;;;;;1.20;1.00;;;15.50;68.20;;;;;;2003941;28;20396;-76
2022/04/01 02:16:04;;;;;;;1.23;0.90;;;15.50;68.40;;;;;;2003745;28;20181;-75
2022/04/01 02:17:04;;;;;;;2.20;0.90;;;15.50;68.50;;;;;;2004459;28;20161;-75
2022/04/01 02:18:03;;;;;;;1.27;0.95;;;15.50;68.30;;;;;;2004459;28;20172;-75
2022/04/01 02:19:01;;;;;;;1.10;0.80;;;15.50;68.70;;;;;;2004562;28;20181;-75
2022/04/01 02:20:01;;;;;;;2.53;1.00;;;15.50;68.50;;;;;;2004293;28;20495;-75
2022/04/01 02:21:00;;;;;;;3.05;1.27;;;15.50;68.20;;;;;;2003897;28;20169;-75
2022/04/01 02:22:00;;;;;;;2.03;1.03;;;15.50;68.40;;;;;;2003788;28;20528;-75
2022/04/01 02:22:59;;;;;;;2.42;1.17;;;15.50;68.40;;;;;;2004496;28;20174;-75
2022/04/01 02:23:58;;;;;;;1.10;1.00;;;15.60;68.40;;;;;;2004349;28;20590;-76
2022/04/01 02:24:57;;;;;;;1.23;0.90;;;15.50;68.30;;;;;;2004678;28;20228;-76
2022/04/01 02:25:55;;;;;;;1.20;1.00;;;15.50;68.20;;;;;;2004431;28;20604;-76
2022/04/01 02:26:55;;;;;;;1.00;0.90;;;15.50;68.30;;;;;;2004422;28;20181;-76
2022/04/01 02:27:53;;;;;;;1.15;0.90;;;15.40;68.30;;;;;;2004545;28;20622;-76
2022/04/01 02:28:56;;;;;;;1.07;0.83;;;15.40;68.30;;;;;;2004512;28;20276;-76
2022/04/01 02:29:54;;;;;;;1.00;0.85;;;15.40;68.40;;;;;;2003679;28;20236;-75
2022/04/01 02:30:53;;;;;;;1.30;1.10;;;15.50;68.70;;;;;;2003842;28;20231;-75
2022/04/01 02:31:52;;;;;;;0.90;0.77;;;15.50;68.60;;;;;;2004309;28;20223;-75
2022/04/01 02:32:52;;;;;;;1.20;1.00;;;15.40;68.30;;;;;;2004517;28;20303;-75
2022/04/01 02:33:51;;;;;;;1.10;1.00;;;15.50;68.30;;;;;;2004631;28;20178;-76
2022/04/01 02:34:50;;;;;;;1.13;0.90;;;15.40;68.20;;;;;;2004435;28;20175;-75
2022/04/01 02:35:50;;;;;;;1.40;1.00;;;15.40;68.30;;;;;;2004379;28;20454;-75
2022/04/01 02:36:49;;;;;;;1.42;1.10;;;15.40;68.40;;;;;;2004421;28;20420;-75
2022/04/01 02:37:48;;;;;;;1.77;1.10;;;15.40;68.30;;;;;;2004452;28;20169;-76
2022/04/01 02:38:47;;;;;;;1.20;1.07;;;15.40;68.30;;;;;;2004328;28;20184;-75
2022/04/01 02:39:46;;;;;;;1.63;1.00;;;15.50;68.30;;;;;;2004455;28;20169;-75
2022/04/01 02:40:44;;;;;;;1.10;0.85;;;15.40;68.40;;;;;;2004428;28;20161;-76
2022/04/01 02:41:43;;;;;;;1.30;0.87;;;15.40;68.10;;;;;;2004581;28;20177;-76
2022/04/01 02:42:42;;;;;;;1.73;1.07;;;15.40;68.10;;;;;;2004488;28;20177;-75
2022/04/01 02:43:40;;;;;;;1.40;1.17;;;15.40;68.50;;;;;;2004395;28;20168;-76
2022/04/01 02:44:39;;;;;;;1.80;1.10;;;15.40;68.40;;;;;;2004281;28;20178;-77
2022/04/01 02:45:38;;;;;;;1.08;0.80;;;15.40;68.40;;;;;;2004286;28;20216;-76
2022/04/01 02:46:39;;;;;;;1.00;0.90;;;15.40;68.30;;;;;;2004401;28;20259;-75
2022/04/01 02:47:37;;;;;;;1.25;0.90;;;15.40;68.50;;;;;;2004270;28;20180;-76
2022/04/01 02:48:36;;;;;;;1.30;1.00;;;15.40;68.40;;;;;;2003767;28;20204;-75
2022/04/01 02:49:35;;;;;;;1.27;0.80;;;15.40;68.30;;;;;;2003888;28;20207;-76
2022/04/01 02:50:34;;;;;;;1.50;0.97;;;15.40;68.30;;;;;;2004322;28;20173;-76
2022/04/01 02:51:36;;;;;;;1.90;1.02;;;15.40;68.60;;;;;;2004401;28;20177;-76
2022/04/01 02:52:34;;;;;;;1.35;1.05;;;15.40;68.40;;;;;;2003534;28;20205;-76
2022/04/01 02:53:33;;;;;;;1.73;0.90;;;15.40;68.30;;;;;;2003775;28;20222;-76
2022/04/01 02:54:34;;;;;;;1.30;1.00;;;15.40;68.40;;;;;;2004347;28;20176;-76
2022/04/01 02:55:33;;;;;;;5.38;1.38;;;15.40;68.60;;;;;;2004247;28;20192;-75
2022/04/01 02:56:33;;;;;;;0.80;0.70;;;15.30;68.30;;;;;;2003587;28;20213;-75
2022/04/01 02:57:33;;;;;;;1.23;0.90;;;15.50;68.50;;;;;;2003617;28;20184;-75
2022/04/01 02:58:33;;;;;;;1.38;0.85;;;15.40;68.40;;;;;;2004262;28;20211;-77
2022/04/01 02:59:32;;;;;;;1.30;0.90;;;15.30;67.90;;;;;;2004340;28;20181;-76
2022/04/01 03:00:31;;;;;;;2.08;1.25;;;15.30;68.30;;;;;;2004269;28;20161;-76
2022/04/01 03:01:30;;;;;;;2.60;1.13;;;15.30;68.30;;;;;;2004328;28;20203;-76
2022/04/01 03:02:28;;;;;;;2.23;1.30;;;15.30;68.30;;;;;;2004338;28;20416;-77
2022/04/01 03:03:27;;;;;;;1.57;1.03;;;15.30;68.00;;;;;;2004221;28;20475;-75
2022/04/01 03:04:25;;;;;;;1.13;0.90;;;15.30;68.20;;;;;;2004267;28;20259;-76
2022/04/01 03:05:24;;;;;;;2.23;1.17;;;15.30;68.10;;;;;;2004373;28;20275;-75
2022/04/01 03:06:24;;;;;;;1.33;0.80;;;15.30;68.30;;;;;;2004304;28;20598;-75
2022/04/01 03:07:22;;;;;;;1.08;0.98;;;15.30;68.30;;;;;;2004331;28;20165;-75
2022/04/01 03:08:21;;;;;;;1.37;1.10;;;15.30;68.10;;;;;;2004245;28;20586;-75
2022/04/01 03:09:20;;;;;;;1.25;0.90;;;15.30;68.20;;;;;;2003636;28;20181;-76
2022/04/01 03:10:23;;;;;;;1.57;1.13;;;15.20;67.90;;;;;;2003769;28;20240;-75
2022/04/01 03:11:22;;;;;;;1.10;0.95;;;15.20;67.80;;;;;;2004424;28;20936;-76
2022/04/01 03:12:20;;;;;;;1.67;0.93;;;15.30;68.10;;;;;;2004249;28;20227;-75
2022/04/01 03:13:19;;;;;;;2.73;1.13;;;15.30;68.20;;;;;;2004201;28;20200;-76
2022/04/01 03:14:18;;;;;;;1.00;0.90;;;15.30;67.80;;;;;;2004320;28;20188;-75
2022/04/01 03:15:17;;;;;;;1.63;1.10;;;15.30;68.20;;;;;;2004367;28;20524;-75
2022/04/01 03:16:15;;;;;;;1.50;1.10;;;15.30;68.20;;;;;;2004098;28;20249;-75
2022/04/01 03:17:14;;;;;;;2.20;0.90;;;15.20;67.70;;;;;;2004308;28;20827;-75
2022/04/01 03:18:13;;;;;;;1.67;0.90;;;15.30;68.20;;;;;;2003650;28;20169;-75
2022/04/01 03:19:13;;;;;;;1.05;0.80;;;15.20;67.80;;;;;;2004150;28;20212;-76
2022/04/01 03:20:14;;;;;;;1.08;0.98;;;15.30;68.10;;;;;;2005668;28;20173;-76
2022/04/01 03:21:13;;;;;;;1.00;0.90;;;15.20;68.00;;;;;;2005861;28;20610;-76
2022/04/01 03:22:12;;;;;;;1.10;0.90;;;15.20;68.00;;;;;;2005665;28;20252;-76
2022/04/01 03:23:11;;;;;;;1.30;0.90;;;15.20;68.10;;;;;;2005753;28;20180;-76
2022/04/01 03:24:10;;;;;;;1.27;0.90;;;15.20;68.10;;;;;;2005874;28;20561;-76
2022/04/01 03:25:19;;;;;;;0.97;0.80;;;15.30;68.40;;;;;;2005695;28;20192;-76
2022/04/01 03:26:18;;;;;;;1.35;0.80;;;15.20;68.10;;;;;;2005771;28;20921;-76
2022/04/01 03:27:17;;;;;;;1.60;1.00;;;15.20;68.20;;;;;;2005710;28;20265;-76
2022/04/01 03:28:17;;;;;;;1.20;1.00;;;15.30;68.40;;;;;;2005755;28;20169;-76
2022/04/01 03:29:16;;;;;;;1.10;0.90;;;15.30;68.50;;;;;;2005585;28;20499;-76
2022/04/01 03:30:17;;;;;;;1.05;0.90;;;15.30;68.00;;;;;;2005662;28;20219;-75
2022/04/01 03:31:16;;;;;;;2.13;1.20;;;15.30;68.30;;;;;;2005652;28;20165;-76
2022/04/01 03:32:15;;;;;;;2.63;1.00;;;15.30;68.50;;;;;;2005607;28;20200;-75
2022/04/01 03:33:14;;;;;;;1.10;1.00;;;15.30;68.30;;;;;;2004870;28;20268;-75
2022/04/01 03:34:13;;;;;;;1.53;1.00;;;15.30;68.20;;;;;;2005168;28;20185;-76
2022/04/01 03:35:17;;;;;;;1.13;1.00;;;15.20;67.80;;;;;;2005597;28;20161;-76
2022/04/01 03:36:15;;;;;;;0.90;0.80;;;15.20;68.00;;;;;;2005559;28;20221;-75
2022/04/01 03:37:14;;;;;;;2.60;1.03;;;15.30;68.30;;;;;;2005652;28;20177;-75
2022/04/01 03:38:13;;;;;;;1.00;0.90;;;15.20;67.70;;;;;;2005677;28;20693;-75
2022/04/01 03:39:12;;;;;;;2.20;1.07;;;15.20;68.00;;;;;;2005626;28;20431;-75
2022/04/01 03:40:14;;;;;;;2.13;1.30;;;15.20;68.00;;;;;;2005537;28;20169;-76
2022/04/01 03:41:13;;;;;;;3.05;0.80;;;15.20;68.00;;;;;;2005634;28;20841;-76
2022/04/01 03:42:12;;;;;;;1.60;0.80;;;15.20;68.60;;;;;;2005525;28;20177;-76
2022/04/01 03:43:11;;;;;;;1.20;0.83;;;15.30;68.50;;;;;;2005627;28;20515;-76
2022/04/01 03:44:10;;;;;;;0.80;0.70;;;15.20;68.00;;;;;;2005552;28;20169;-75
2022/04/01 03:45:10;;;;;;;1.58;0.95;;;15.30;68.30;;;;;;2005559;28;20229;-78
2022/04/01 03:46:15;;;;;;;1.15;0.95;;;15.30;68.30;;;;;;2005593;28;20578;-75
2022/04/01 03:47:21;;;;;;;0.95;0.88;;;15.30;68.20;;;;;;2005610;28;20235;-76
2022/04/01 03:48:52;;;;;;;1.00;0.90;;;15.30;68.40;;;;;;2005429;28;20260;-76
2022/04/01 03:49:57;;;;;;;1.67;0.90;;;15.20;68.20;;;;;;1994860;28;20553;-75
2022/04/01 03:50:57;;;;;;;0.85;0.77;;;15.30;68.60;;;;;;2005577;28;20189;-76
2022/04/01 03:51:56;;;;;;;1.23;0.98;;;15.30;68.50;;;;;;2005539;28;20185;-77
2022/04/01 03:53:08;;;;;;;1.10;0.60;;;15.20;68.10;;;;;;2005654;28;20664;-76
2022/04/01 03:54:07;;;;;;;1.83;1.08;;;15.30;68.40;;;;;;2005559;28;20169;-76
2022/04/01 03:55:08;;;;;;;3.03;1.00;;;15.30;68.60;;;;;;2005492;28;20252;-77
2022/04/01 03:56:07;;;;;;;2.40;1.00;;;15.30;68.40;;;;;;2005251;28;20201;-76
2022/04/01 03:57:08;;;;;;;1.10;0.90;;;15.50;68.30;;;;;;2005470;28;20179;-76
2022/04/01 03:58:13;;;;;;;1.20;0.95;;;15.20;68.00;;;;;;2005552;28;20417;-76
2022/04/01 03:59:12;;;;;;;1.10;0.90;;;15.20;68.50;;;;;;2005651;28;20158;-76
2022/04/01 04:00:13;;;;;;;1.63;1.07;;;15.20;68.70;;;;;;2005430;28;20165;-77
2022/04/01 04:01:13;;;;;;;1.40;0.90;;;15.20;68.20;;;;;;2005620;28;20944;-76
2022/04/01 04:02:12;;;;;;;2.17;1.13;;;15.20;68.50;;;;;;2005400;28;20173;-76
2022/04/01 04:03:11;;;;;;;1.20;1.10;;;15.20;68.00;;;;;;2005371;28;20249;-76
2022/04/01 04:04:09;;;;;;;1.10;0.90;;;15.20;68.20;;;;;;2005426;28;20173;-76
2022/04/01 04:05:09;;;;;;;1.07;0.90;;;15.20;68.20;;;;;;2005502;28;20406;-76
2022/04/01 04:06:10;;;;;;;1.10;0.90;;;15.20;68.20;;;;;;2005504;28;20359;-76
2022/04/01 04:07:09;;;;;;;1.83;1.10;;;15.40;68.40;;;;;;2007063;28;20630;-76
2022/04/01 04:08:11;;;;;;;2.65;1.38;;;15.20;68.30;;;;;;2008588;28;20261;-76
2022/04/01 04:09:09;;;;;;;0.95;0.77;;;15.20;68.20;;;;;;2010213;28;20181;-76
2022/04/01 04:10:08;;;;;;;1.20;1.00;;;15.20;68.20;;;;;;2010517;28;20197;-76
2022/04/01 04:11:09;;;;;;;2.88;1.08;;;15.20;68.40;;;;;;2010212;28;20183;-76
2022/04/01 04:12:12;;;;;;;1.20;0.98;;;15.20;68.30;;;;;;2010964;28;20201;-77
2022/04/01 04:13:12;;;;;;;1.10;0.80;;;15.20;68.40;;;;;;2009444;28;20161;-76
2022/04/01 04:14:11;;;;;;;1.17;1.05;;;15.20;68.10;;;;;;2007922;28;20165;-76
2022/04/01 04:15:10;;;;;;;1.13;0.90;;;15.20;68.30;;;;;;2008063;28;20252;-76
2022/04/01 04:16:39;;;;;;;1.30;1.00;;;15.20;68.00;;;;;;2007567;28;20233;-76
2022/04/01 04:17:39;;;;;;;1.50;1.05;;;15.20;68.00;;;;;;2008008;28;20530;-76
2022/04/01 04:19:03;;;;;;;3.05;1.00;;;15.20;68.40;;;;;;2008385;28;20192;-76
2022/04/01 04:20:07;;;;;;;1.60;1.08;;;15.20;68.40;;;;;;2007644;28;20550;-76
2022/04/01 04:21:10;;;;;;;1.33;0.95;;;15.10;68.30;;;;;;2007488;28;20245;-76
2022/04/01 04:22:12;;;;;;;1.50;1.27;;;15.10;68.40;;;;;;2005939;28;20700;-76
2022/04/01 04:23:23;;;;;;;1.42;1.20;;;15.20;68.60;;;;;;2006916;28;20209;-76
2022/04/01 04:24:29;;;;;;;0.93;0.80;;;15.20;68.40;;;;;;2008031;28;20167;-75
2022/04/01 04:25:35;;;;;;;1.00;0.90;;;15.20;68.60;;;;;;2006414;28;20169;-77
2022/04/01 04:26:38;;;;;;;1.67;0.98;;;15.20;68.40;;;;;;2007726;28;20618;-77
2022/04/01 04:27:40;;;;;;;1.95;1.30;;;15.20;68.50;;;;;;2006916;28;20173;-77
2022/04/01 04:28:43;;;;;;;1.38;1.00;;;15.20;68.50;;;;;;2006224;28;20640;-76
2022/04/01 04:29:52;;;;;;;1.23;0.85;;;15.10;68.50;;;;;;2007103;28;20259;-76
2022/04/01 04:30:54;;;;;;;1.60;1.02;;;15.20;68.40;;;;;;2006446;28;20173;-76
2022/04/01 04:31:59;;;;;;;0.95;0.85;;;15.10;68.20;;;;;;2005573;28;20216;-76
2022/04/01 04:33:06;;;;;;;1.00;0.90;;;15.10;68.10;;;;;;2005337;28;20184;-76
2022/04/01 04:34:10;;;;;;;2.35;1.10;;;15.20;68.30;;;;;;2005627;28;20172;-75
2022/04/01 04:35:11;;;;;;;1.55;0.90;;;15.10;68.40;;;;;;2005284;28;20165;-76
2022/04/01 04:36:11;;;;;;;1.88;1.10;;;15.10;68.30;;;;;;2005077;28;20200;-75
2022/04/01 04:37:14;;;;;;;2.35;1.00;;;15.10;68.20;;;;;;2005198;28;20187;-77
2022/04/01 04:38:14;;;;;;;1.25;0.95;;;15.10;68.10;;;;;;2005357;28;20486;-76
2022/04/01 04:39:20;;;;;;;1.63;1.15;;;15.10;68.40;;;;;;2005091;28;20295;-76
2022/04/01 04:40:19;;;;;;;2.35;0.90;;;15.10;68.40;;;;;;2005166;28;20211;-77
2022/04/01 04:41:18;;;;;;;1.60;1.20;;;15.10;68.40;;;;;;2004488;28;20577;-76
2022/04/01 04:42:18;;;;;;;3.10;1.30;;;15.10;68.40;;;;;;1996620;28;20228;-74
2022/04/01 04:43:23;;;;;;;1.55;0.85;;;15.10;68.00;;;;;;1996315;28;20185;-76
2022/04/01 04:44:29;;;;;;;1.17;1.08;;;15.20;68.20;;;;;;2004851;28;20215;-76
2022/04/01 04:45:29;;;;;;;1.88;1.15;;;15.10;68.10;;;;;;2005012;28;20235;-76
2022/04/01 04:46:30;;;;;;;1.60;0.95;;;15.10;68.20;;;;;;2005174;28;20211;-76
2022/04/01 04:47:30;;;;;;;1.20;0.90;;;15.20;68.70;;;;;;2005095;28;20697;-76
2022/04/01 04:48:30;;;;;;;1.27;0.98;;;15.10;68.30;;;;;;2005234;28;20560;-75
2022/04/01 04:49:29;;;;;;;1.17;0.98;;;15.10;68.10;;;;;;2005241;28;20181;-76
2022/04/01 04:50:28;;;;;;;1.00;0.90;;;15.10;68.20;;;;;;2005055;28;20661;-75
2022/04/01 04:51:28;;;;;;;1.70;1.00;;;15.10;68.20;;;;;;2005078;28;20649;-76
2022/04/01 04:52:34;;;;;;;1.20;0.80;;;15.10;68.60;;;;;;2004371;28;20231;-76
2022/04/01 04:53:34;;;;;;;1.48;1.00;;;15.10;68.80;;;;;;2004552;28;20697;-76
2022/04/01 04:54:38;;;;;;;1.23;1.13;;;15.20;68.20;;;;;;2005078;28;20181;-76
2022/04/01 04:55:36;;;;;;;1.55;0.90;;;15.10;68.00;;;;;;2005145;28;20176;-76
2022/04/01 04:56:36;;;;;;;1.33;1.17;;;15.10;68.40;;;;;;2004962;28;20180;-76
2022/04/01 04:57:35;;;;;;;2.28;0.90;;;15.20;68.50;;;;;;2005104;28;20696;-76
2022/04/01 04:58:40;;;;;;;1.20;1.10;;;15.10;68.30;;;;;;2005085;28;20307;-77
2022/04/01 04:59:42;;;;;;;1.00;0.80;;;15.10;68.20;;;;;;2005093;28;20166;-76
2022/04/01 05:00:51;;;;;;;1.63;1.00;;;15.10;68.10;;;;;;2005015;28;20212;-76
2022/04/01 05:02:08;;;;;;;1.55;0.80;;;15.10;68.30;;;;;;2005115;28;20157;-77
2022/04/01 05:03:21;;;;;;;0.98;0.82;;;15.10;68.10;;;;;;2004949;28;20223;-76
2022/04/01 05:04:32;;;;;;;1.88;1.02;;;15.10;68.20;;;;;;2004940;28;20157;-76
2022/04/01 05:05:37;;;;;;;1.00;0.90;;;15.10;68.20;;;;;;2005056;28;20161;-76
2022/04/01 05:06:43;;;;;;;1.42;1.20;;;15.10;68.40;;;;;;2005021;28;20294;-75
2022/04/01 05:08:05;;;;;;;0.90;0.80;;;15.10;68.30;;;;;;2005131;28;20224;-76
2022/04/01 05:09:21;;;;;;;2.20;1.35;;;15.10;68.30;;;;;;2004876;28;20165;-76
2022/04/01 05:10:29;;;;;;;1.63;0.90;;;15.00;68.20;;;;;;2005187;28;20153;-76
2022/04/01 05:11:44;;;;;;;2.50;1.23;;;15.10;68.50;;;;;;2005003;28;20153;-77
2022/04/01 05:13:17;;;;;;;1.50;1.10;;;15.10;68.40;;;;;;2004422;28;20744;-77
2022/04/01 05:14:27;;;;;;;2.45;1.27;;;15.10;68.20;;;;;;1989810;28;20204;-76
2022/04/01 05:15:30;;;;;;;1.90;1.40;;;15.10;68.40;;;;;;2004479;28;20614;-76
2022/04/01 05:16:53;;;;;;;1.83;1.25;;;15.10;68.00;;;;;;2004875;28;20231;-75
2022/04/01 05:18:12;;;;;;;2.05;1.38;;;15.10;68.00;;;;;;2004214;28;20188;-76
2022/04/01 05:19:17;;;;;;;1.35;1.05;;;15.00;67.80;;;;;;2004517;28;20162;-76
2022/04/01 05:20:21;;;;;;;2.38;1.10;;;15.00;68.50;;;;;;2004594;28;20189;-76
2022/04/01 05:21:23;;;;;;;1.40;1.00;;;15.10;68.10;;;;;;2004280;28;20184;-76
2022/04/01 05:22:29;;;;;;;1.70;1.30;;;15.00;68.10;;;;;;2004357;28;20173;-76
2022/04/01 05:24:01;;;;;;;1.30;1.10;;;15.00;68.10;;;;;;2010735;28;20168;-76